createdAt,value
2022-08-27T00:00:21.482Z,17.15
2022-08-27T00:02:49.002Z,16.52
2022-08-27T00:05:17.652Z,14.30
2022-08-27T00:07:45.179Z,17.33
2022-08-27T00:10:15.463Z,19.75
2022-08-27T00:12:42.483Z,17.02
2022-08-27T00:15:11.061Z,19.75
2022-08-27T00:17:38.667Z,14.60
2022-08-27T00:20:06.878Z,15.65
2022-08-27T00:22:33.888Z,15.05
2022-08-27T00:25:01.229Z,19.58
2022-08-27T00:27:27.910Z,15.63
2022-08-27T00:29:54.590Z,15.57
2022-08-27T00:32:21.272Z,13.93
2022-08-27T00:34:47.897Z,17.15
2022-08-27T00:37:14.683Z,16.48
2022-08-27T00:39:41.448Z,15.02
2022-08-27T00:42:08.484Z,14.35
2022-08-27T00:44:36.313Z,15.63
2022-08-27T00:47:07.512Z,17.10
2022-08-27T00:49:52.856Z,14.43
2022-08-27T00:52:28.406Z,13.10
2022-08-27T00:55:20.004Z,12.50
2022-08-27T00:57:53.636Z,13.30
2022-08-27T01:00:20.686Z,10.68
2022-08-27T01:02:48.347Z,12.35
2022-08-27T01:05:21.838Z,12.40
2022-08-27T01:07:51.513Z,11.48
2022-08-27T01:10:21.494Z,12.73
2022-08-27T01:12:53.529Z,12.73
2022-08-27T01:15:22.624Z,12.68
2022-08-27T01:17:50.415Z,12.55
2022-08-27T01:20:27.247Z,11.25
2022-08-27T01:22:59.787Z,10.93
2022-08-27T01:25:27.443Z,13.05
2022-08-27T01:27:58.574Z,15.27
2022-08-27T01:30:25.573Z,10.65
2022-08-27T01:32:53.099Z,13.35
2022-08-27T01:35:21.185Z,13.73
2022-08-27T01:37:52.417Z,12.18
2022-08-27T01:40:20.340Z,13.65
2022-08-27T01:42:50.811Z,13.55
2022-08-27T01:45:30.134Z,11.63
2022-08-27T01:47:58.634Z,13.57
2022-08-27T01:50:31.925Z,12.32
2022-08-27T01:53:06.592Z,11.43
2022-08-27T01:55:33.375Z,14.35
2022-08-27T01:58:00.184Z,15.07
2022-08-27T02:00:34.711Z,15.00
2022-08-27T02:03:01.971Z,13.38
2022-08-27T02:05:29.594Z,13.65
2022-08-27T02:07:57.137Z,11.18
2022-08-27T02:10:27.895Z,14.10
2022-08-27T02:12:54.630Z,14.40
2022-08-27T02:15:22.331Z,13.20
2022-08-27T02:17:49.566Z,13.30
2022-08-27T02:20:17.536Z,13.57
2022-08-27T02:22:44.847Z,17.08
2022-08-27T02:25:13.635Z,14.40
2022-08-27T02:27:41.855Z,15.43
2022-08-27T02:30:10.823Z,19.70
2022-08-27T02:32:37.516Z,17.63
2022-08-27T02:35:05.603Z,16.85
2022-08-27T02:37:32.686Z,17.45
2022-08-27T02:39:59.450Z,18.33
2022-08-27T02:42:26.159Z,18.98
2022-08-27T02:44:54.923Z,19.05
2022-08-27T02:47:21.791Z,19.88
2022-08-27T02:49:49.307Z,12.07
2022-08-27T02:52:16.835Z,17.67
2022-08-27T02:54:51.906Z,18.42
2022-08-27T02:57:18.640Z,17.60
2022-08-27T02:59:45.262Z,18.48
2022-08-27T03:02:12.045Z,14.93
2022-08-27T03:04:38.891Z,17.02
2022-08-27T03:07:05.548Z,22.38
2022-08-27T03:09:32.512Z,22.48
2022-08-27T03:11:59.215Z,18.95
2022-08-27T03:14:26.151Z,19.73
2022-08-27T03:16:52.797Z,22.10
2022-08-27T03:19:23.665Z,18.65
2022-08-27T03:21:52.122Z,18.83
2022-08-27T03:24:21.654Z,20.25
2022-08-27T03:26:52.657Z,18.92
2022-08-27T03:29:20.826Z,17.77
2022-08-27T03:31:47.613Z,18.52
2022-08-27T03:34:14.376Z,20.27
2022-08-27T03:36:48.714Z,18.95
2022-08-27T03:39:15.383Z,19.50
2022-08-27T03:41:54.552Z,17.00
2022-08-27T03:44:24.075Z,18.00
2022-08-27T03:46:51.883Z,16.55
2022-08-27T03:49:20.743Z,17.67
2022-08-27T03:51:49.914Z,14.98
2022-08-27T03:54:16.680Z,18.98
2022-08-27T03:56:43.405Z,23.00
2022-08-27T03:59:10.182Z,17.65
2022-08-27T04:01:36.942Z,18.60
2022-08-27T04:04:04.330Z,17.70
2022-08-27T04:06:30.982Z,16.95
2022-08-27T04:08:57.746Z,24.27
2022-08-27T04:11:24.491Z,15.50
2022-08-27T04:13:51.420Z,19.88
2022-08-27T04:16:18.197Z,18.30
2022-08-27T04:18:44.975Z,17.88
2022-08-27T04:21:14.159Z,19.92
2022-08-27T04:23:42.108Z,20.05
2022-08-27T04:26:10.999Z,18.63
2022-08-27T04:28:38.843Z,21.83
2022-08-27T04:31:06.741Z,16.67
2022-08-27T04:33:38.645Z,20.90
2022-08-27T04:36:08.251Z,20.85
2022-08-27T04:38:35.047Z,19.23
2022-08-27T04:41:27.440Z,20.70
2022-08-27T04:43:59.083Z,19.48
2022-08-27T04:46:29.035Z,20.38
2022-08-27T04:48:57.718Z,19.20
2022-08-27T04:51:25.011Z,21.30
2022-08-27T04:53:52.663Z,19.02
2022-08-27T04:56:22.271Z,18.35
2022-08-27T04:58:50.584Z,19.08
2022-08-27T05:01:25.278Z,18.10
2022-08-27T05:03:52.160Z,20.02
2022-08-27T05:06:19.345Z,18.13
2022-08-27T05:08:47.500Z,18.80
2022-08-27T05:11:15.868Z,17.50
2022-08-27T05:13:44.128Z,19.48
2022-08-27T05:16:19.581Z,21.08
2022-08-27T05:18:48.829Z,22.27
2022-08-27T05:21:19.999Z,23.77
2022-08-27T05:23:47.573Z,20.65
2022-08-27T05:26:14.936Z,21.02
2022-08-27T05:28:42.097Z,22.58
2022-08-27T05:31:11.243Z,19.92
2022-08-27T05:33:39.148Z,19.55
2022-08-27T05:36:07.247Z,24.20
2022-08-27T05:38:34.403Z,19.60
2022-08-27T05:41:15.138Z,24.15
2022-08-27T05:43:47.751Z,21.27
2022-08-27T05:46:18.903Z,20.90
2022-08-27T05:48:45.683Z,22.38
2022-08-27T05:51:36.327Z,19.27
2022-08-27T05:54:19.044Z,19.58
2022-08-27T05:56:46.064Z,21.70
2022-08-27T05:59:31.232Z,18.90
2022-08-27T06:02:02.035Z,20.75
2022-08-27T06:04:28.992Z,21.73
2022-08-27T06:06:55.664Z,21.38
2022-08-27T06:09:25.652Z,20.17
2022-08-27T06:11:56.875Z,20.27
2022-08-27T06:14:24.103Z,18.05
2022-08-27T06:16:50.834Z,20.40
2022-08-27T06:19:18.008Z,19.30
2022-08-27T06:21:45.029Z,23.20
2022-08-27T06:24:12.998Z,18.58
2022-08-27T06:26:42.233Z,18.85
2022-08-27T06:29:09.796Z,16.05
2022-08-27T06:31:37.349Z,14.75
2022-08-27T06:34:09.502Z,19.42
2022-08-27T06:36:39.392Z,20.30
2022-08-27T06:39:07.183Z,17.67
2022-08-27T06:41:34.955Z,26.55
2022-08-27T06:44:01.700Z,27.83
2022-08-27T06:46:29.489Z,23.25
2022-08-27T06:48:58.894Z,21.40
2022-08-27T06:51:28.693Z,23.75
2022-08-27T06:53:57.685Z,21.00
2022-08-27T06:56:24.588Z,18.45
2022-08-27T06:59:00.883Z,20.70
2022-08-27T07:01:36.886Z,22.27
2022-08-27T07:04:10.302Z,17.52
2022-08-27T07:06:38.515Z,18.88
2022-08-27T07:09:06.723Z,19.02
2022-08-27T07:11:33.511Z,17.92
2022-08-27T07:14:01.342Z,18.05
2022-08-27T07:16:29.482Z,29.25
2022-08-27T07:19:03.909Z,20.02
2022-08-27T07:21:32.807Z,18.58
2022-08-27T07:24:04.475Z,17.60
2022-08-27T07:26:33.574Z,19.17
2022-08-27T07:29:00.844Z,19.00
2022-08-27T07:31:28.031Z,19.10
2022-08-27T07:33:54.862Z,20.42
2022-08-27T07:36:22.978Z,16.83
2022-08-27T07:38:59.296Z,17.10
2022-08-27T07:41:30.582Z,16.05
2022-08-27T07:44:19.683Z,17.55
2022-08-27T07:46:48.664Z,18.35
2022-08-27T07:49:19.526Z,17.60
2022-08-27T07:51:46.638Z,16.63
2022-08-27T07:54:14.289Z,15.35
2022-08-27T07:56:41.091Z,13.15
2022-08-27T07:59:08.165Z,16.23
2022-08-27T08:01:34.995Z,20.63
2022-08-27T08:04:02.187Z,15.73
2022-08-27T08:06:28.975Z,16.42
2022-08-27T08:08:55.816Z,13.88
2022-08-27T08:11:22.480Z,15.32
2022-08-27T08:13:49.205Z,15.85
2022-08-27T08:16:16.183Z,10.63
2022-08-27T08:18:42.983Z,12.35
2022-08-27T08:21:12.652Z,12.85
2022-08-27T08:23:40.732Z,15.55
2022-08-27T08:26:09.018Z,14.63
2022-08-27T08:28:37.277Z,14.07
2022-08-27T08:31:06.196Z,12.75
2022-08-27T08:33:33.511Z,14.35
2022-08-27T08:36:30.598Z,13.90
2022-08-27T08:38:57.274Z,14.63
2022-08-27T08:41:50.412Z,12.60
2022-08-27T08:44:23.649Z,15.65
2022-08-27T08:46:58.494Z,10.15
2022-08-27T08:49:49.417Z,14.07
2022-08-27T08:55:20.817Z,15.25
2022-08-27T08:58:25.341Z,16.40
2022-08-27T09:00:57.431Z,15.18
2022-08-27T09:03:24.332Z,14.30
2022-08-27T09:06:16.914Z,12.48
2022-08-27T09:08:45.036Z,18.20
2022-08-27T09:11:27.274Z,13.50
2022-08-27T09:14:07.533Z,17.17
2022-08-27T09:16:38.610Z,18.58
2022-08-27T09:19:06.877Z,16.83
2022-08-27T09:22:01.732Z,17.50
2022-08-27T09:24:52.591Z,15.05
2022-08-27T09:29:54.528Z,15.70
2022-08-27T09:32:26.727Z,15.18
2022-08-27T09:34:58.554Z,17.88
2022-08-27T09:37:33.922Z,15.90
2022-08-27T09:40:13.683Z,19.45
2022-08-27T09:42:53.350Z,12.80
2022-08-27T09:45:27.229Z,14.80
2022-08-27T09:48:10.170Z,13.50
2022-08-27T09:50:55.880Z,18.05
2022-08-27T09:53:27.868Z,14.00
2022-08-27T09:58:45.084Z,12.80
2022-08-27T10:01:19.689Z,17.27
2022-08-27T10:03:47.621Z,15.40
2022-08-27T10:06:14.351Z,12.32
2022-08-27T10:08:48.968Z,13.90
2022-08-27T10:11:18.708Z,13.63
2022-08-27T10:13:48.068Z,12.00
2022-08-27T10:16:42.663Z,12.30
2022-08-27T10:19:46.611Z,13.15
2022-08-27T10:22:19.502Z,13.00
2022-08-27T10:25:15.995Z,14.55
2022-08-27T10:27:49.510Z,12.30
2022-08-27T10:30:40.298Z,18.00
2022-08-27T10:38:37.540Z,12.02
2022-08-27T10:41:15.687Z,12.25
2022-08-27T10:44:01.034Z,12.32
2022-08-27T10:47:04.976Z,11.13
2022-08-27T10:49:58.296Z,10.23
2022-08-27T10:52:46.271Z,11.27
2022-08-27T10:55:23.890Z,12.57
2022-08-27T10:58:28.256Z,11.30
2022-08-27T11:01:13.711Z,9.88
2022-08-27T11:03:50.323Z,11.68
2022-08-27T11:06:41.107Z,13.07
2022-08-27T11:12:13.708Z,11.52
2022-08-27T11:14:49.427Z,8.63
2022-08-27T11:17:21.958Z,9.68
2022-08-27T11:20:20.458Z,10.15
2022-08-27T11:23:02.627Z,9.52
2022-08-27T11:25:59.084Z,11.10
2022-08-27T11:28:40.593Z,8.30
2022-08-27T11:31:30.374Z,7.40
2022-08-27T11:34:21.736Z,8.85
2022-08-27T11:37:21.674Z,7.32
2022-08-27T11:40:18.143Z,10.90
2022-08-27T11:42:50.014Z,8.95
2022-08-27T11:45:29.739Z,7.60
2022-08-27T11:48:24.020Z,9.20
2022-08-27T11:51:06.969Z,7.20
2022-08-27T11:53:49.019Z,10.90
2022-08-27T11:56:41.487Z,6.65
2022-08-27T11:59:33.335Z,6.47
2022-08-27T12:02:35.646Z,7.50
2022-08-27T12:05:26.594Z,8.50
2022-08-27T12:07:53.627Z,7.50
2022-08-27T12:10:37.923Z,7.82
2022-08-27T12:13:17.419Z,8.00
2022-08-27T12:15:58.680Z,7.82
2022-08-27T12:18:37.035Z,7.90
2022-08-27T12:21:13.600Z,7.45
2022-08-27T12:24:03.106Z,9.30
2022-08-27T12:26:41.522Z,8.63
2022-08-27T12:29:43.896Z,5.28
2022-08-27T12:32:22.429Z,6.60
2022-08-27T12:35:12.099Z,8.02
2022-08-27T12:37:51.818Z,8.02
2022-08-27T12:40:27.294Z,7.50
2022-08-27T12:43:13.737Z,6.30
2022-08-27T12:45:51.108Z,7.32
2022-08-27T12:48:48.361Z,7.28
2022-08-27T12:51:26.995Z,8.75
2022-08-27T12:53:53.584Z,7.45
2022-08-27T12:56:35.303Z,6.93
2022-08-27T12:59:10.922Z,8.52
2022-08-27T13:01:43.369Z,7.07
2022-08-27T13:04:22.884Z,7.50
2022-08-27T13:06:49.925Z,6.75
2022-08-27T13:09:16.907Z,5.85
2022-08-27T13:11:48.205Z,7.10
2022-08-27T13:14:20.712Z,8.13
2022-08-27T13:16:52.620Z,5.50
2022-08-27T13:24:36.323Z,6.88
2022-08-27T13:27:05.786Z,5.35
2022-08-27T13:29:32.930Z,8.95
2022-08-27T13:32:00.346Z,4.25
2022-08-27T13:34:31.920Z,7.22
2022-08-27T13:37:04.063Z,5.75
2022-08-27T13:39:32.769Z,5.03
2022-08-27T13:42:00.779Z,7.43
2022-08-27T13:44:33.249Z,7.72
2022-08-27T13:47:04.974Z,8.30
2022-08-27T13:49:39.795Z,8.93
2022-08-27T13:52:22.016Z,6.15
2022-08-27T13:54:58.975Z,9.00
2022-08-27T13:57:39.460Z,8.27
2022-08-27T14:00:15.970Z,5.85
2022-08-27T14:02:56.364Z,8.75
2022-08-27T14:05:23.214Z,7.93
2022-08-27T14:07:53.786Z,10.98
2022-08-27T14:10:38.547Z,9.43
2022-08-27T14:13:09.775Z,8.13
2022-08-27T14:15:42.638Z,6.45
2022-08-27T14:18:36.847Z,8.25
2022-08-27T14:21:09.320Z,6.20
2022-08-27T14:23:36.012Z,5.50
2022-08-27T14:26:02.931Z,6.97
2022-08-27T14:28:31.519Z,6.22
2022-08-27T14:30:58.451Z,7.97
2022-08-27T14:33:25.288Z,6.57
2022-08-27T14:35:52.143Z,5.65
2022-08-27T14:38:23.250Z,6.70
2022-08-27T14:40:53.675Z,7.82
2022-08-27T14:43:22.938Z,8.02
2022-08-27T14:45:50.851Z,8.00
2022-08-27T14:48:21.846Z,5.50
2022-08-27T14:50:55.485Z,6.85
2022-08-27T14:53:22.275Z,6.18
2022-08-27T14:55:52.108Z,7.90
2022-08-27T14:58:19.389Z,6.70
2022-08-27T15:00:46.447Z,6.28
2022-08-27T15:03:13.356Z,7.15
2022-08-27T15:05:40.067Z,6.32
2022-08-27T15:08:07.522Z,7.55
2022-08-27T15:10:39.734Z,6.70
2022-08-27T15:13:06.468Z,4.22
2022-08-27T15:15:33.141Z,5.00
2022-08-27T15:17:59.776Z,7.22
2022-08-27T15:20:26.478Z,5.65
2022-08-27T15:22:53.275Z,5.40
2022-08-27T15:25:20.757Z,7.50
2022-08-27T15:27:47.614Z,6.53
2022-08-27T15:30:15.869Z,7.13
2022-08-27T15:32:45.743Z,6.05
2022-08-27T15:35:17.641Z,8.02
2022-08-27T15:40:14.703Z,7.80
2022-08-27T15:42:41.884Z,5.82
2022-08-27T15:45:09.730Z,7.22
2022-08-27T15:47:36.396Z,6.75
2022-08-27T15:50:04.955Z,6.75
2022-08-27T15:52:36.412Z,8.75
2022-08-27T15:55:18.535Z,6.32
2022-08-27T15:57:45.265Z,6.53
2022-08-27T16:00:12.991Z,5.75
2022-08-27T16:02:41.492Z,5.32
2022-08-27T16:05:10.242Z,7.05
2022-08-27T16:07:37.131Z,7.47
2022-08-27T16:10:05.107Z,6.32
2022-08-27T16:12:31.775Z,5.68
2022-08-27T16:14:58.715Z,8.93
2022-08-27T16:17:26.448Z,6.03
2022-08-27T16:19:53.448Z,10.23
2022-08-27T16:22:20.159Z,6.75
2022-08-27T16:24:46.830Z,4.80
2022-08-27T16:27:13.543Z,8.27
2022-08-27T16:29:40.240Z,8.60
2022-08-27T16:32:11.256Z,5.10
2022-08-27T16:37:05.939Z,8.15
2022-08-27T16:39:34.644Z,7.03
2022-08-27T16:42:04.691Z,6.15
2022-08-27T16:44:32.040Z,8.30
2022-08-27T16:46:58.724Z,5.15
2022-08-27T16:49:44.208Z,7.10
2022-08-27T16:52:11.281Z,6.95
2022-08-27T16:54:38.618Z,6.75
2022-08-27T16:57:05.540Z,5.03
2022-08-27T16:59:32.254Z,5.20
2022-08-27T17:01:59.023Z,4.60
2022-08-27T17:04:31.273Z,5.03
2022-08-27T17:07:01.243Z,5.43
2022-08-27T17:09:28.304Z,5.65
2022-08-27T17:11:58.638Z,6.47
2022-08-27T17:14:26.726Z,7.35
2022-08-27T17:16:53.855Z,8.98
2022-08-27T17:19:25.987Z,6.60
2022-08-27T17:21:54.795Z,6.05
2022-08-27T17:24:22.061Z,6.82
2022-08-27T17:26:48.842Z,5.07
2022-08-27T17:29:15.581Z,4.80
2022-08-27T17:31:43.709Z,4.95
2022-08-27T17:34:17.835Z,5.30
2022-08-27T17:36:45.326Z,7.40
2022-08-27T17:39:13.691Z,5.78
2022-08-27T17:41:46.314Z,5.05
2022-08-27T17:44:27.603Z,5.05
2022-08-27T17:46:58.471Z,5.55
2022-08-27T17:49:25.566Z,8.90
2022-08-27T17:51:56.896Z,5.10
2022-08-27T17:54:50.879Z,5.78
2022-08-27T17:57:25.511Z,8.20
2022-08-27T17:59:53.614Z,5.45
2022-08-27T18:02:34.347Z,4.90
2022-08-27T18:05:01.496Z,6.38
2022-08-27T18:07:28.475Z,4.72
2022-08-27T18:09:55.458Z,6.38
2022-08-27T18:12:24.595Z,9.18
2022-08-27T18:14:58.365Z,8.30
2022-08-27T18:17:25.016Z,10.02
2022-08-27T18:19:51.687Z,6.53
2022-08-27T18:22:18.540Z,5.55
2022-08-27T18:24:45.166Z,5.53
2022-08-27T18:27:11.927Z,5.55
2022-08-27T18:29:38.699Z,5.97
2022-08-27T18:32:05.723Z,5.40
2022-08-27T18:34:32.573Z,4.20
2022-08-27T18:36:59.348Z,6.32
2022-08-27T18:39:26.170Z,7.15
2022-08-27T18:41:53.330Z,6.65
2022-08-27T18:44:20.143Z,5.28
2022-08-27T18:46:47.931Z,6.75
2022-08-27T18:49:14.702Z,5.13
2022-08-27T18:51:43.742Z,5.68
2022-08-27T18:54:10.788Z,5.55
2022-08-27T18:56:37.468Z,6.57
2022-08-27T18:59:06.733Z,7.53
2022-08-27T19:01:33.796Z,8.13
2022-08-27T19:04:00.767Z,6.78
2022-08-27T19:06:27.466Z,7.60
2022-08-27T19:08:54.131Z,6.78
2022-08-27T19:11:20.853Z,6.43
2022-08-27T19:13:50.557Z,6.95
2022-08-27T19:16:21.909Z,7.45
2022-08-27T19:18:48.861Z,6.47
2022-08-27T19:21:16.102Z,6.63
2022-08-27T19:23:43.183Z,5.50
2022-08-27T19:26:22.132Z,7.95
2022-08-27T19:28:48.922Z,5.50
2022-08-27T19:31:16.244Z,5.88
2022-08-27T19:33:44.402Z,7.55
2022-08-27T19:36:15.755Z,6.68
2022-08-27T19:38:43.619Z,11.65
2022-08-27T19:41:10.693Z,8.30
2022-08-27T19:43:37.344Z,6.85
2022-08-27T19:46:04.938Z,5.95
2022-08-27T19:48:34.173Z,6.47
2022-08-27T19:51:01.404Z,7.97
2022-08-27T19:53:28.135Z,8.23
2022-08-27T19:55:54.870Z,7.00
2022-08-27T19:58:22.072Z,7.60
2022-08-27T20:00:48.834Z,7.22
2022-08-27T20:03:15.810Z,6.63
2022-08-27T20:05:43.520Z,7.65
2022-08-27T20:08:10.398Z,6.80
2022-08-27T20:10:39.902Z,6.07
2022-08-27T20:13:07.474Z,8.30
2022-08-27T20:15:35.263Z,8.32
2022-08-27T20:18:02.677Z,6.30
2022-08-27T20:20:31.417Z,8.73
2022-08-27T20:22:59.682Z,10.07
2022-08-27T20:25:26.586Z,5.00
2022-08-27T20:27:53.300Z,7.72
2022-08-27T20:30:22.901Z,4.88
2022-08-27T20:32:50.225Z,8.75
2022-08-27T20:35:17.943Z,6.68
2022-08-27T20:37:46.075Z,7.30
2022-08-27T20:40:17.892Z,6.95
2022-08-27T20:42:44.643Z,7.80
2022-08-27T20:45:12.669Z,9.98
2022-08-27T20:47:40.835Z,8.15
2022-08-27T20:50:08.212Z,7.97
2022-08-27T20:52:35.859Z,7.78
2022-08-27T20:55:03.771Z,9.43
2022-08-27T20:57:30.506Z,9.60
2022-08-27T21:00:15.980Z,8.85
2022-08-27T21:02:42.795Z,6.80
2022-08-27T21:05:15.130Z,6.43
2022-08-27T21:07:42.507Z,7.28
2022-08-27T21:10:09.441Z,8.95
2022-08-27T21:12:36.427Z,9.20
2022-08-27T21:15:05.830Z,7.15
2022-08-27T21:17:32.503Z,6.70
2022-08-27T21:19:59.436Z,8.32
2022-08-27T21:22:26.731Z,9.40
2022-08-27T21:24:53.614Z,8.45
2022-08-27T21:27:21.641Z,5.18
2022-08-27T21:29:49.102Z,6.57
2022-08-27T21:32:16.772Z,8.88
2022-08-27T21:34:43.737Z,8.05
2022-08-27T21:37:11.932Z,8.02
2022-08-27T21:39:39.683Z,9.45
2022-08-27T21:42:06.864Z,7.15
2022-08-27T21:44:34.260Z,10.18
2022-08-27T21:47:01.759Z,8.27
2022-08-27T21:49:28.808Z,7.43
2022-08-27T21:51:55.538Z,7.55
2022-08-27T21:54:23.518Z,8.48
2022-08-27T21:56:52.893Z,9.13
2022-08-27T21:59:19.960Z,7.90
2022-08-27T22:01:46.637Z,6.22
2022-08-27T22:04:13.407Z,6.07
2022-08-27T22:06:40.071Z,7.50
2022-08-27T22:09:07.082Z,6.53
2022-08-27T22:11:33.754Z,8.13
2022-08-27T22:14:00.642Z,5.18
2022-08-27T22:16:28.999Z,6.55
2022-08-27T22:18:57.036Z,5.55
2022-08-27T22:21:24.391Z,7.18
2022-08-27T22:23:52.286Z,5.93
2022-08-27T22:26:19.976Z,5.78
2022-08-27T22:28:47.100Z,6.63
2022-08-27T22:31:14.344Z,9.85
2022-08-27T22:33:41.078Z,6.38
2022-08-27T22:36:07.951Z,5.13
2022-08-27T22:38:34.687Z,7.65
2022-08-27T22:41:01.523Z,9.95
2022-08-27T22:43:28.278Z,7.75
2022-08-27T22:45:54.974Z,9.05
2022-08-27T22:48:21.630Z,4.72
2022-08-27T22:50:48.334Z,10.95
2022-08-27T22:53:15.005Z,6.95
2022-08-27T22:55:41.642Z,4.40
2022-08-27T22:58:08.440Z,6.50
2022-08-27T23:00:37.187Z,7.82
2022-08-27T23:03:06.196Z,7.63
2022-08-27T23:05:40.370Z,6.68
2022-08-27T23:08:09.471Z,6.65
2022-08-27T23:10:37.884Z,8.63
2022-08-27T23:13:06.797Z,8.23
2022-08-27T23:15:34.441Z,6.75
2022-08-27T23:18:01.576Z,8.55
2022-08-27T23:20:28.921Z,4.30
2022-08-27T23:22:56.223Z,6.22
2022-08-27T23:25:43.429Z,6.53
2022-08-27T23:28:14.821Z,4.30
2022-08-27T23:30:43.308Z,9.00
2022-08-27T23:33:09.958Z,5.97
2022-08-27T23:35:37.209Z,6.88
2022-08-27T23:38:04.679Z,5.22
2022-08-27T23:40:31.530Z,9.50
2022-08-27T23:42:58.288Z,5.97
2022-08-27T23:45:26.115Z,8.63
2022-08-27T23:47:53.364Z,7.57
2022-08-27T23:50:24.739Z,4.82
2022-08-27T23:53:02.081Z,8.15
2022-08-27T23:55:29.379Z,5.28
2022-08-27T23:57:57.634Z,7.22
